Time;durP1;ratioP1;P1;durP2;ratioP2;P2;SDS_P1;SDS_P2;PMS_P1;PMS_P2;Temp;Humidity;BMP_temperature;BMP_pressure;BME280_temperature;BME280_humidity;BME280_pressure;Samples;Min_cycle;Max_cycle;Signal;HPM_P1;HPM_P2
2022/03/28 00:01:52;;;;;;;;;;;8.30;99.90;;;;;;5082733;28;19920;-70
2022/03/28 00:04:18;;;;;;;;;;;8.30;99.90;;;;;;5072864;28;20108;-70
2022/03/28 00:06:45;;;;;;;;;;;8.20;99.90;;;;;;5062254;28;20032;-70
2022/03/28 00:09:11;;;;;;;;;;;8.20;99.90;;;;;;5062416;28;19921;-70
2022/03/28 00:11:38;;;;;;;;;;;8.20;99.90;;;;;;5062713;28;19929;-70
2022/03/28 00:14:05;;;;;;;;;;;8.10;99.90;;;;;;5062656;28;19920;-70
2022/03/28 00:16:33;;;;;;;;;;;8.10;99.90;;;;;;5062037;28;19929;-70
2022/03/28 00:18:59;;;;;;;;;;;8.10;99.90;;;;;;5063200;28;20212;-70
2022/03/28 00:21:26;;;;;;;;;;;8.00;99.90;;;;;;5066242;28;19925;-70
2022/03/28 00:23:53;;;;;;;;;;;8.00;99.90;;;;;;5066011;28;19921;-70
2022/03/28 00:26:20;;;;;;;;;;;7.90;99.90;;;;;;5065778;28;19921;-70
2022/03/28 00:28:47;;;;;;;;;;;7.90;99.90;;;;;;5071241;28;19924;-68
2022/03/28 00:31:14;;;;;;;;;;;7.90;99.90;;;;;;5086428;28;19924;-71
2022/03/28 00:33:42;;;;;;;;;;;7.80;99.90;;;;;;5086104;28;19927;-70
2022/03/28 00:36:09;;;;;;;;;;;7.80;99.90;;;;;;5085303;28;19926;-70
2022/03/28 00:38:36;;;;;;;;;;;7.70;99.90;;;;;;5083302;28;19920;-70
2022/03/28 00:41:04;;;;;;;;;;;7.70;99.90;;;;;;5085965;28;19925;-70
2022/03/28 00:43:31;;;;;;;;;;;7.70;99.90;;;;;;5086055;28;20155;-70
2022/03/28 00:45:58;;;;;;;;;;;7.60;99.90;;;;;;5085211;28;20250;-70
2022/03/28 00:48:26;;;;;;;;;;;7.60;99.90;;;;;;5083593;28;19987;-70
2022/03/28 00:50:56;;;;;;;;;;;7.50;99.90;;;;;;5085495;28;19927;-70
2022/03/28 00:53:24;;;;;;;;;;;7.50;99.90;;;;;;5076650;28;19920;-70
2022/03/28 00:55:51;;;;;;;;;;;7.60;99.90;;;;;;5085079;28;19920;-69
2022/03/28 00:58:17;;;;;;;;;;;7.50;99.90;;;;;;5085757;28;19928;-70
2022/03/28 01:00:45;;;;;;;;;;;7.50;99.90;;;;;;5085569;28;19921;-70
2022/03/28 01:03:12;;;;;;;;;;;7.40;99.90;;;;;;5082907;28;19942;-70
2022/03/28 01:05:39;;;;;;;;;;;7.40;99.90;;;;;;5069781;28;19935;-70
2022/03/28 01:08:07;;;;;;;;;;;7.40;99.90;;;;;;5065551;28;19949;-69
2022/03/28 01:10:34;;;;;;;;;;;7.40;99.90;;;;;;5065260;28;19928;-70
2022/03/28 01:13:01;;;;;;;;;;;7.30;99.90;;;;;;5065680;28;19920;-70
2022/03/28 01:15:28;;;;;;;;;;;7.30;99.90;;;;;;5062370;28;19931;-70
2022/03/28 01:18:05;;;;;;;;;;;7.10;99.90;;;;;;5065294;28;20123;-70
2022/03/28 01:20:33;;;;;;;;;;;6.90;99.90;;;;;;5065332;28;19925;-68
2022/03/28 01:23:01;;;;;;;;;;;6.90;99.90;;;;;;5065292;28;19921;-70
2022/03/28 01:25:29;;;;;;;;;;;6.70;99.90;;;;;;5064653;28;20218;-70
2022/03/28 01:27:57;;;;;;;;;;;6.70;99.90;;;;;;5065093;28;19921;-70
2022/03/28 01:30:24;;;;;;;;;;;6.60;99.90;;;;;;5082641;28;20227;-70
2022/03/28 01:32:51;;;;;;;;;;;6.60;99.90;;;;;;5084913;28;19920;-70
2022/03/28 01:35:28;;;;;;;;;;;6.60;99.90;;;;;;5084284;28;19926;-70
2022/03/28 01:37:55;;;;;;;;;;;6.50;99.90;;;;;;5084813;28;19920;-70
2022/03/28 01:40:23;;;;;;;;;;;6.50;99.90;;;;;;5078492;28;19935;-72
2022/03/28 01:42:50;;;;;;;;;;;6.50;99.90;;;;;;5064793;28;19921;-70
2022/03/28 01:45:18;;;;;;;;;;;6.50;99.90;;;;;;5064146;28;19943;-70
2022/03/28 01:47:45;;;;;;;;;;;6.50;99.90;;;;;;5064797;28;19921;-70
2022/03/28 01:50:11;;;;;;;;;;;6.40;99.90;;;;;;5065171;28;19925;-70
2022/03/28 01:52:38;;;;;;;;;;;6.40;99.90;;;;;;5080443;28;19928;-70
2022/03/28 01:55:05;;;;;;;;;;;6.40;99.90;;;;;;5064298;28;20209;-70
2022/03/28 01:57:33;;;;;;;;;;;6.40;99.90;;;;;;5064014;28;19927;-70
2022/03/28 02:00:00;;;;;;;;;;;6.40;99.90;;;;;;5064433;28;19927;-70
2022/03/28 02:02:27;;;;;;;;;;;6.40;99.90;;;;;;5084401;28;20205;-70
2022/03/28 02:04:55;;;;;;;;;;;6.30;99.90;;;;;;5068895;28;20127;-70
2022/03/28 02:07:22;;;;;;;;;;;6.30;99.90;;;;;;5064000;28;19920;-70
2022/03/28 02:09:48;;;;;;;;;;;6.30;99.90;;;;;;5064093;28;19920;-70
2022/03/28 02:12:15;;;;;;;;;;;6.20;99.90;;;;;;5064148;28;19928;-70
2022/03/28 02:14:43;;;;;;;;;;;6.20;99.90;;;;;;5064224;28;19928;-70
2022/03/28 02:17:09;;;;;;;;;;;6.20;99.90;;;;;;5063452;28;19921;-70
2022/03/28 02:19:37;;;;;;;;;;;6.10;99.90;;;;;;5064272;28;19920;-70
2022/03/28 02:22:03;;;;;;;;;;;6.10;99.90;;;;;;5064276;28;20094;-72
2022/03/28 02:24:30;;;;;;;;;;;6.10;99.90;;;;;;5064005;28;19935;-72
2022/03/28 02:26:57;;;;;;;;;;;6.10;99.90;;;;;;5063291;28;19921;-72
2022/03/28 02:29:23;;;;;;;;;;;6.10;99.90;;;;;;5074033;28;19921;-70
2022/03/28 02:31:51;;;;;;;;;;;6.00;99.90;;;;;;5083935;28;19927;-72
2022/03/28 02:34:18;;;;;;;;;;;6.00;99.90;;;;;;5084051;28;19920;-72
2022/03/28 02:36:44;;;;;;;;;;;5.90;99.90;;;;;;5083057;28;19921;-72
2022/03/28 02:39:11;;;;;;;;;;;5.90;99.90;;;;;;5083487;28;19943;-70
2022/03/28 02:41:37;;;;;;;;;;;5.90;99.90;;;;;;5066843;28;19948;-70
2022/03/28 02:44:04;;;;;;;;;;;5.80;99.90;;;;;;5063015;28;20123;-70
2022/03/28 02:46:31;;;;;;;;;;;5.80;99.90;;;;;;5062926;28;20224;-70
2022/03/28 02:48:59;;;;;;;;;;;5.70;99.90;;;;;;5063562;28;19920;-70
2022/03/28 02:51:25;;;;;;;;;;;5.70;99.90;;;;;;5074032;28;19924;-69
2022/03/28 02:53:52;;;;;;;;;;;5.60;99.90;;;;;;5068934;28;19928;-70
2022/03/28 02:56:18;;;;;;;;;;;5.60;99.90;;;;;;5062728;28;20266;-70
2022/03/28 02:58:45;;;;;;;;;;;5.50;99.90;;;;;;5063452;28;19921;-70
2022/03/28 03:01:11;;;;;;;;;;;5.50;99.90;;;;;;5070377;28;19921;-70
2022/03/28 03:03:38;;;;;;;;;;;5.50;99.90;;;;;;5079029;28;19921;-70
2022/03/28 03:06:06;;;;;;;;;;;5.50;99.90;;;;;;5062588;28;20123;-70
2022/03/28 03:08:32;;;;;;;;;;;5.40;99.90;;;;;;5062982;28;19929;-70
2022/03/28 03:10:59;;;;;;;;;;;5.40;99.90;;;;;;5063246;28;20223;-70
2022/03/28 03:13:25;;;;;;;;;;;5.40;99.90;;;;;;5063145;28;20107;-70
2022/03/28 03:15:52;;;;;;;;;;;5.40;99.90;;;;;;5062576;28;20116;-70
2022/03/28 03:18:19;;;;;;;;;;;5.40;99.90;;;;;;5063232;28;19924;-70
2022/03/28 03:20:45;;;;;;;;;;;5.40;99.90;;;;;;5063043;28;19920;-70
2022/03/28 03:23:13;;;;;;;;;;;5.30;99.90;;;;;;5062907;28;19921;-70
2022/03/28 03:25:40;;;;;;;;;;;5.30;99.90;;;;;;5062492;28;20235;-70
2022/03/28 03:28:06;;;;;;;;;;;5.30;99.90;;;;;;5063000;28;20209;-70
2022/03/28 03:30:33;;;;;;;;;;;5.20;99.90;;;;;;5082687;28;19929;-71
2022/03/28 03:33:00;;;;;;;;;;;5.20;99.90;;;;;;5083177;28;19924;-70
2022/03/28 03:35:26;;;;;;;;;;;5.10;99.90;;;;;;5082329;28;19920;-70
2022/03/28 03:37:53;;;;;;;;;;;5.10;99.90;;;;;;5082870;28;20094;-70
2022/03/28 03:40:21;;;;;;;;;;;5.10;99.90;;;;;;5082738;28;19927;-70
2022/03/28 03:42:47;;;;;;;;;;;5.00;99.90;;;;;;5083028;28;20158;-70
2022/03/28 03:45:14;;;;;;;;;;;5.00;99.90;;;;;;5082531;28;19921;-70
2022/03/28 03:47:41;;;;;;;;;;;5.00;99.90;;;;;;5082846;28;20215;-70
2022/03/28 03:50:08;;;;;;;;;;;4.90;99.90;;;;;;5082726;28;19921;-70
2022/03/28 03:52:34;;;;;;;;;;;5.00;99.90;;;;;;5074241;28;19920;-70
2022/03/28 03:55:01;;;;;;;;;;;5.00;99.90;;;;;;5085500;28;19925;-70
2022/03/28 03:57:29;;;;;;;;;;;5.00;99.90;;;;;;5086301;28;19921;-70
2022/03/28 03:59:55;;;;;;;;;;;5.00;99.90;;;;;;5086692;28;19924;-70
2022/03/28 04:02:22;;;;;;;;;;;5.00;99.90;;;;;;5086560;28;20197;-70
2022/03/28 04:04:48;;;;;;;;;;;5.00;99.90;;;;;;5072442;28;19947;-70
2022/03/28 04:07:15;;;;;;;;;;;4.90;99.90;;;;;;5065891;28;20227;-70
2022/03/28 04:09:42;;;;;;;;;;;4.80;99.90;;;;;;5066378;28;19920;-70
2022/03/28 04:12:09;;;;;;;;;;;4.80;99.90;;;;;;5066515;28;19921;-70
2022/03/28 04:14:37;;;;;;;;;;;4.80;99.90;;;;;;5066368;28;19921;-70
2022/03/28 04:17:04;;;;;;;;;;;4.80;99.90;;;;;;5065836;28;19943;-70
2022/03/28 04:19:30;;;;;;;;;;;4.70;99.90;;;;;;5066287;28;19928;-70
2022/03/28 04:21:57;;;;;;;;;;;4.70;99.90;;;;;;5070824;28;19980;-69
2022/03/28 04:24:24;;;;;;;;;;;4.70;99.90;;;;;;5085363;28;19920;-70
2022/03/28 04:26:50;;;;;;;;;;;4.70;99.90;;;;;;5085470;28;19924;-70
2022/03/28 04:29:17;;;;;;;;;;;4.60;99.90;;;;;;5085942;28;19926;-70
2022/03/28 04:31:45;;;;;;;;;;;4.60;99.90;;;;;;5085976;28;19927;-70
2022/03/28 04:34:11;;;;;;;;;;;4.60;99.90;;;;;;5085898;28;20269;-70
2022/03/28 04:36:38;;;;;;;;;;;4.60;99.90;;;;;;5084130;28;19921;-70
2022/03/28 04:39:05;;;;;;;;;;;4.60;99.90;;;;;;5083594;28;20188;-70
2022/03/28 04:41:32;;;;;;;;;;;4.60;99.90;;;;;;5085970;28;19921;-73
2022/03/28 04:43:59;;;;;;;;;;;4.50;99.90;;;;;;5085903;28;19926;-70
2022/03/28 04:46:25;;;;;;;;;;;4.50;99.90;;;;;;5085073;28;19920;-71
2022/03/28 04:48:53;;;;;;;;;;;4.50;99.90;;;;;;5084903;28;19921;-71
2022/03/28 04:51:20;;;;;;;;;;;4.40;99.90;;;;;;5085622;28;20089;-70
2022/03/28 04:53:46;;;;;;;;;;;4.40;99.90;;;;;;5085802;28;19921;-70
2022/03/28 04:56:13;;;;;;;;;;;4.30;99.90;;;;;;5084873;28;19988;-70
2022/03/28 04:58:40;;;;;;;;;;;4.30;99.90;;;;;;5085372;28;19920;-70
2022/03/28 05:01:08;;;;;;;;;;;4.30;99.90;;;;;;5085648;28;19920;-70
2022/03/28 05:03:34;;;;;;;;;;;4.20;99.90;;;;;;5079417;28;19921;-70
2022/03/28 05:06:02;;;;;;;;;;;4.20;99.90;;;;;;5079406;28;19928;-70
2022/03/28 05:08:29;;;;;;;;;;;4.10;99.90;;;;;;5085512;28;19920;-71
2022/03/28 05:10:56;;;;;;;;;;;4.00;99.90;;;;;;5085305;28;19920;-71
2022/03/28 05:13:25;;;;;;;;;;;4.00;99.90;;;;;;5082186;28;19928;-74
2022/03/28 05:15:52;;;;;;;;;;;4.00;99.90;;;;;;5084621;28;19920;-70
2022/03/28 05:18:18;;;;;;;;;;;3.90;99.90;;;;;;5084933;28;19920;-70
2022/03/28 05:20:45;;;;;;;;;;;3.90;99.90;;;;;;5085336;28;20163;-70
2022/03/28 05:23:13;;;;;;;;;;;3.80;99.90;;;;;;5082164;28;19928;-70
2022/03/28 05:25:39;;;;;;;;;;;3.90;99.90;;;;;;5084407;28;19965;-70
2022/03/28 05:28:06;;;;;;;;;;;3.90;99.90;;;;;;5084938;28;19927;-70
2022/03/28 05:30:33;;;;;;;;;;;3.90;99.90;;;;;;5085021;28;20185;-71
2022/03/28 05:32:59;;;;;;;;;;;3.90;99.90;;;;;;5085185;28;19926;-71
2022/03/28 05:35:26;;;;;;;;;;;3.90;99.90;;;;;;5084295;28;19927;-71
2022/03/28 05:37:53;;;;;;;;;;;4.00;99.90;;;;;;5085079;28;20116;-71
2022/03/28 05:40:21;;;;;;;;;;;4.00;99.90;;;;;;5084765;28;20215;-70
2022/03/28 05:42:47;;;;;;;;;;;4.00;99.90;;;;;;5084737;28;19924;-70
2022/03/28 05:45:14;;;;;;;;;;;4.00;99.90;;;;;;5084450;28;19925;-70
2022/03/28 05:47:41;;;;;;;;;;;4.00;99.90;;;;;;5084678;28;19920;-70
2022/03/28 05:50:08;;;;;;;;;;;4.00;99.90;;;;;;5084704;28;19966;-73
2022/03/28 05:52:34;;;;;;;;;;;4.00;99.90;;;;;;5076570;28;19920;-69
2022/03/28 05:55:01;;;;;;;;;;;4.00;99.90;;;;;;5085043;28;19927;-70
2022/03/28 05:57:29;;;;;;;;;;;4.00;99.90;;;;;;5084412;28;19962;-69
2022/03/28 05:59:55;;;;;;;;;;;4.00;99.90;;;;;;5084440;28;19924;-69
2022/03/28 06:02:22;;;;;;;;;;;4.10;99.90;;;;;;5083145;28;19920;-69
2022/03/28 06:04:48;;;;;;;;;;;4.10;99.90;;;;;;5076073;28;19927;-70
2022/03/28 06:07:15;;;;;;;;;;;4.10;99.90;;;;;;5083650;28;19920;-69
2022/03/28 06:09:42;;;;;;;;;;;4.20;99.90;;;;;;5084133;28;19921;-69
2022/03/28 06:12:10;;;;;;;;;;;4.20;99.90;;;;;;5084076;28;20212;-70
2022/03/28 06:14:37;;;;;;;;;;;4.30;99.90;;;;;;5084589;28;19920;-69
2022/03/28 06:17:04;;;;;;;;;;;4.30;99.90;;;;;;5083258;28;19921;-69
2022/03/28 06:19:31;;;;;;;;;;;4.30;99.90;;;;;;5084048;28;19928;-70
2022/03/28 06:21:57;;;;;;;;;;;4.30;99.90;;;;;;5084341;28;19921;-69
2022/03/28 06:24:24;;;;;;;;;;;4.30;99.90;;;;;;5083809;28;19983;-69
2022/03/28 06:26:51;;;;;;;;;;;4.40;99.90;;;;;;5083533;28;19921;-70
2022/03/28 06:29:17;;;;;;;;;;;4.40;99.90;;;;;;5084029;28;19926;-69
2022/03/28 06:31:45;;;;;;;;;;;4.40;99.90;;;;;;5084013;28;20174;-69
2022/03/28 06:34:12;;;;;;;;;;;4.50;99.90;;;;;;5084033;28;19921;-69
2022/03/28 06:36:39;;;;;;;;;;;4.50;99.90;;;;;;5083216;28;19967;-70
2022/03/28 06:39:05;;;;;;;;;;;4.60;99.90;;;;;;5083574;28;19920;-69
2022/03/28 06:41:32;;;;;;;;;;;4.60;99.90;;;;;;5083773;28;19926;-69
2022/03/28 06:43:58;;;;;;;;;;;4.70;99.90;;;;;;5083893;28;19927;-69
2022/03/28 06:46:25;;;;;;;;;;;4.80;99.90;;;;;;5083390;28;19943;-69
2022/03/28 06:48:54;;;;;;;;;;;4.80;99.90;;;;;;5083832;28;19928;-69
2022/03/28 06:51:21;;;;;;;;;;;4.90;99.90;;;;;;5081679;28;19965;-70
2022/03/28 06:53:49;;;;;;;;;;;5.00;99.90;;;;;;5077191;28;20238;-70
2022/03/28 06:56:16;;;;;;;;;;;5.10;99.90;;;;;;5082815;28;20235;-69
2022/03/28 06:58:42;;;;;;;;;;;5.20;99.90;;;;;;5083280;28;19920;-70
2022/03/28 07:01:10;;;;;;;;;;;5.20;99.90;;;;;;5083214;28;19921;-70
2022/03/28 07:03:37;;;;;;;;;;;5.40;99.90;;;;;;5082995;28;19927;-70
2022/03/28 07:06:06;;;;;;;;;;;5.40;99.90;;;;;;5072710;28;19921;-69
2022/03/28 07:08:32;;;;;;;;;;;5.50;99.90;;;;;;5083265;28;19921;-69
2022/03/28 07:10:59;;;;;;;;;;;5.60;99.90;;;;;;5083180;28;19927;-70
2022/03/28 07:13:26;;;;;;;;;;;5.70;99.90;;;;;;5081014;28;19927;-70
2022/03/28 07:15:53;;;;;;;;;;;5.80;99.90;;;;;;5080161;28;19920;-70
2022/03/28 07:18:19;;;;;;;;;;;6.00;99.90;;;;;;5080721;28;19921;-70
2022/03/28 07:20:46;;;;;;;;;;;6.10;99.90;;;;;;5083010;28;19921;-70
2022/03/28 07:23:14;;;;;;;;;;;6.20;99.90;;;;;;5080877;28;19929;-70
2022/03/28 07:25:41;;;;;;;;;;;6.30;99.90;;;;;;5082085;28;20240;-70
2022/03/28 07:28:08;;;;;;;;;;;6.50;99.90;;;;;;5079061;28;19968;-70
2022/03/28 07:30:35;;;;;;;;;;;6.60;99.90;;;;;;5089479;28;20029;-70
2022/03/28 07:33:02;;;;;;;;;;;6.80;99.90;;;;;;5108408;28;19968;-69
2022/03/28 07:35:29;;;;;;;;;;;6.90;99.90;;;;;;5102133;28;20213;-70
2022/03/28 07:37:57;;;;;;;;;;;7.10;99.90;;;;;;5103707;28;19920;-70
2022/03/28 07:40:25;;;;;;;;;;;7.30;99.90;;;;;;5098139;28;19921;-70
2022/03/28 07:42:53;;;;;;;;;;;7.50;99.90;;;;;;5089705;28;19927;-70
2022/03/28 07:45:20;;;;;;;;;;;7.70;99.90;;;;;;5088798;28;19920;-69
2022/03/28 07:47:47;;;;;;;;;;;7.90;99.90;;;;;;5087833;28;19921;-71
2022/03/28 07:50:13;;;;;;;;;;;8.10;99.90;;;;;;5087354;28;19926;-69
2022/03/28 07:52:40;;;;;;;;;;;8.20;99.90;;;;;;5082120;28;20223;-69
2022/03/28 07:55:08;;;;;;;;;;;8.40;99.90;;;;;;5088819;28;20147;-70
2022/03/28 07:57:36;;;;;;;;;;;8.50;99.90;;;;;;5096889;28;20140;-70
2022/03/28 08:00:04;;;;;;;;;;;8.80;99.90;;;;;;5109054;28;19924;-70
2022/03/28 08:02:31;;;;;;;;;;;9.00;99.90;;;;;;5085639;28;20239;-70
2022/03/28 08:04:58;;;;;;;;;;;9.20;99.90;;;;;;5080349;28;20227;-70
2022/03/28 08:07:24;;;;;;;;;;;9.40;99.90;;;;;;5079155;28;19921;-69
2022/03/28 08:09:51;;;;;;;;;;;9.60;99.90;;;;;;5088237;28;19928;-68
2022/03/28 08:12:18;;;;;;;;;;;9.70;99.90;;;;;;5083939;28;19926;-67
2022/03/28 08:14:46;;;;;;;;;;;9.90;99.90;;;;;;5106394;28;19924;-68
2022/03/28 08:17:12;;;;;;;;;;;10.20;99.90;;;;;;5090001;28;19927;-68
2022/03/28 08:19:39;;;;;;;;;;;10.60;99.90;;;;;;5089255;28;19958;-69
2022/03/28 08:22:05;;;;;;;;;;;10.80;99.90;;;;;;5076541;28;19921;-68
2022/03/28 08:24:32;;;;;;;;;;;11.00;99.90;;;;;;5071617;28;19928;-69
2022/03/28 08:26:59;;;;;;;;;;;11.10;99.90;;;;;;5068407;28;19921;-71
2022/03/28 08:29:25;;;;;;;;;;;11.30;99.90;;;;;;5075929;28;19921;-71
2022/03/28 08:31:53;;;;;;;;;;;11.50;99.90;;;;;;5069693;28;19921;-72
2022/03/28 08:34:21;;;;;;;;;;;11.80;99.90;;;;;;5069168;28;19980;-71
2022/03/28 08:36:47;;;;;;;;;;;12.00;99.90;;;;;;5068501;28;20097;-71
2022/03/28 08:39:15;;;;;;;;;;;12.20;99.90;;;;;;5066658;28;20089;-71
2022/03/28 08:41:42;;;;;;;;;;;12.30;99.90;;;;;;5065938;28;20405;-72
2022/03/28 08:44:08;;;;;;;;;;;12.50;99.90;;;;;;5065716;28;19935;-71
2022/03/28 08:46:35;;;;;;;;;;;12.70;99.90;;;;;;5078428;28;19928;-71
2022/03/28 08:49:04;;;;;;;;;;;12.90;99.90;;;;;;5084136;28;20250;-71
2022/03/28 08:51:30;;;;;;;;;;;13.20;99.90;;;;;;5085901;28;19966;-71
2022/03/28 08:53:57;;;;;;;;;;;13.20;99.90;;;;;;5085591;28;20271;-72
2022/03/28 08:56:23;;;;;;;;;;;13.30;99.90;;;;;;5070190;28;20139;-71
2022/03/28 08:58:50;;;;;;;;;;;13.50;99.90;;;;;;5065616;28;19921;-71
2022/03/28 09:01:17;;;;;;;;;;;13.60;99.90;;;;;;5068603;28;19921;-71
2022/03/28 09:03:47;;;;;;;;;;;13.70;99.90;;;;;;5085373;28;19924;-70
2022/03/28 09:06:34;;;;;;;;;;;13.80;99.90;;;;;;5076531;28;19920;-71
2022/03/28 09:09:12;;;;;;;;;;;14.00;99.90;;;;;;5083189;28;19921;-71
2022/03/28 09:11:39;;;;;;;;;;;14.20;99.90;;;;;;5085338;28;19928;-71
2022/03/28 09:14:05;;;;;;;;;;;14.30;99.90;;;;;;5085373;28;20119;-70
2022/03/28 09:16:34;;;;;;;;;;;14.40;99.90;;;;;;5084205;28;19934;-70
2022/03/28 09:19:07;;;;;;;;;;;14.50;99.90;;;;;;5085009;28;19924;-69
2022/03/28 09:21:34;;;;;;;;;;;14.60;99.90;;;;;;5081296;28;20136;-71
2022/03/28 09:24:03;;;;;;;;;;;14.70;99.90;;;;;;5074220;28;19947;-72
2022/03/28 09:26:31;;;;;;;;;;;14.80;99.90;;;;;;5084668;28;20092;-72
2022/03/28 09:29:00;;;;;;;;;;;15.00;99.90;;;;;;5083455;28;19927;-71
2022/03/28 09:31:28;;;;;;;;;;;15.10;99.90;;;;;;5064991;28;20028;-71
2022/03/28 09:33:59;;;;;;;;;;;15.20;99.90;;;;;;5064859;28;19944;-71
2022/03/28 09:36:35;;;;;;;;;;;15.30;99.90;;;;;;5064417;28;19921;-70
2022/03/28 09:39:02;;;;;;;;;;;15.30;99.90;;;;;;5065371;28;19927;-70
2022/03/28 09:41:29;;;;;;;;;;;15.50;99.90;;;;;;5065182;28;19928;-69
2022/03/28 09:43:57;;;;;;;;;;;15.60;98.00;;;;;;5065346;28;19921;-70
2022/03/28 09:46:27;;;;;;;;;;;15.70;96.00;;;;;;5064553;28;19927;-69
2022/03/28 09:48:54;;;;;;;;;;;15.80;94.50;;;;;;5065210;28;19927;-69
2022/03/28 09:51:21;;;;;;;;;;;15.90;96.60;;;;;;5064623;28;19956;-69
2022/03/28 09:53:48;;;;;;;;;;;15.90;96.30;;;;;;5064670;28;20139;-70
2022/03/28 09:56:15;;;;;;;;;;;16.10;95.60;;;;;;5064082;28;19984;-69
2022/03/28 09:58:43;;;;;;;;;;;16.10;92.40;;;;;;5064660;28;19921;-65
2022/03/28 10:01:14;;;;;;;;;;;16.20;91.80;;;;;;5064353;28;19947;-66
2022/03/28 10:03:44;;;;;;;;;;;16.30;93.00;;;;;;5075366;28;19920;-66
2022/03/28 10:06:10;;;;;;;;;;;16.40;91.40;;;;;;5066712;28;19920;-66
2022/03/28 10:08:37;;;;;;;;;;;16.50;92.50;;;;;;5064718;28;19929;-69
2022/03/28 10:11:04;;;;;;;;;;;16.60;91.50;;;;;;5064606;28;19924;-68
2022/03/28 10:13:31;;;;;;;;;;;16.60;91.70;;;;;;5064711;28;19927;-68
2022/03/28 10:15:58;;;;;;;;;;;16.70;91.00;;;;;;5065359;28;19927;-69
2022/03/28 10:18:29;;;;;;;;;;;16.80;92.10;;;;;;5078620;28;19974;-69
2022/03/28 10:20:56;;;;;;;;;;;16.90;92.10;;;;;;5063727;28;19929;-70
2022/03/28 10:23:27;;;;;;;;;;;17.00;91.50;;;;;;5074600;28;19966;-69
2022/03/28 10:25:55;;;;;;;;;;;17.20;92.40;;;;;;5063257;28;19952;-69
2022/03/28 10:28:28;;;;;;;;;;;17.30;90.90;;;;;;5063274;28;19927;-69
2022/03/28 10:31:15;;;;;;;;;;;17.40;87.90;;;;;;5075955;28;20089;-69
2022/03/28 10:33:50;;;;;;;;;;;17.60;87.70;;;;;;5084214;28;19920;-68
2022/03/28 10:36:21;;;;;;;;;;;17.70;86.90;;;;;;5083051;28;19926;-69
2022/03/28 10:38:51;;;;;;;;;;;17.90;86.30;;;;;;5083440;28;20124;-69
2022/03/28 10:41:18;;;;;;;;;;;18.00;83.70;;;;;;5075086;28;19920;-69
2022/03/28 10:43:45;;;;;;;;;;;18.10;84.60;;;;;;5077497;28;19921;-70
2022/03/28 10:46:12;;;;;;;;;;;18.20;83.20;;;;;;5062921;28;20212;-69
2022/03/28 10:48:40;;;;;;;;;;;18.40;81.90;;;;;;5063800;28;19921;-69
2022/03/28 10:51:08;;;;;;;;;;;18.50;83.50;;;;;;5063703;28;19967;-70
2022/03/28 10:53:40;;;;;;;;;;;18.60;80.10;;;;;;5063005;28;19943;-69
2022/03/28 10:56:08;;;;;;;;;;;18.60;79.90;;;;;;5062915;28;19927;-70
2022/03/28 10:58:37;;;;;;;;;;;18.80;79.00;;;;;;5071864;28;19959;-70
2022/03/28 11:01:17;;;;;;;;;;;18.90;77.80;;;;;;5063572;28;19928;-69
2022/03/28 11:03:47;;;;;;;;;;;19.00;76.80;;;;;;5060487;28;19921;-70
2022/03/28 11:06:16;;;;;;;;;;;19.20;77.80;;;;;;5062872;28;19927;-70
2022/03/28 11:08:45;;;;;;;;;;;19.30;73.50;;;;;;5063912;28;20097;-69
2022/03/28 11:11:19;;;;;;;;;;;19.50;72.80;;;;;;5063578;28;19921;-71
2022/03/28 11:13:57;;;;;;;;;;;19.50;71.80;;;;;;5063721;28;20092;-71
2022/03/28 11:16:39;;;;;;;;;;;19.60;73.80;;;;;;5063094;28;19924;-71
2022/03/28 11:19:29;;;;;;;;;;;19.70;72.90;;;;;;5062003;28;19925;-71
2022/03/28 11:21:58;;;;;;;;;;;19.80;72.30;;;;;;5063321;28;19920;-72
2022/03/28 11:24:43;;;;;;;;;;;19.80;70.70;;;;;;5063467;28;20116;-71
2022/03/28 11:27:11;;;;;;;;;;;19.80;71.50;;;;;;5060484;28;20205;-71
2022/03/28 11:29:38;;;;;;;;;;;19.90;70.60;;;;;;5097511;22;19935;-73
2022/03/28 11:32:05;;;;;;;;;;;19.80;71.10;;;;;;5083038;28;19920;-73
2022/03/28 11:34:32;;;;;;;;;;;19.90;71.20;;;;;;5076051;28;19929;-72
2022/03/28 11:37:01;;;;;;;;;;;20.00;67.60;;;;;;5062213;28;19921;-73
2022/03/28 11:39:29;;;;;;;;;;;20.00;67.90;;;;;;5078411;28;19927;-72
2022/03/28 11:41:56;;;;;;;;;;;20.10;68.80;;;;;;5096428;28;19927;-73
2022/03/28 11:44:24;;;;;;;;;;;20.20;66.60;;;;;;5100633;28;19920;-74
2022/03/28 11:46:54;;;;;;;;;;;20.30;62.30;;;;;;5103135;28;20142;-73
2022/03/28 11:49:21;;;;;;;;;;;20.50;63.10;;;;;;5103610;28;19926;-74
2022/03/28 11:51:48;;;;;;;;;;;20.20;59.70;;;;;;5103574;28;20207;-74
2022/03/28 11:54:17;;;;;;;;;;;20.30;62.20;;;;;;5103683;28;20227;-75
2022/03/28 11:59:29;;;;;;;;;;;20.60;61.50;;;;;;5103322;28;19923;-74
2022/03/28 12:01:56;;;;;;;;;;;20.70;61.90;;;;;;5103796;28;19928;-73
2022/03/28 12:04:23;;;;;;;;;;;20.60;63.60;;;;;;5103731;28;19923;-73
2022/03/28 12:06:51;;;;;;;;;;;20.60;63.60;;;;;;5102793;28;19929;-74
2022/03/28 12:09:20;;;;;;;;;;;20.70;63.30;;;;;;5103548;28;19946;-75
2022/03/28 12:11:48;;;;;;;;;;;20.80;63.30;;;;;;5103365;28;20196;-75
2022/03/28 12:14:15;;;;;;;;;;;20.80;63.00;;;;;;5103667;28;19970;-75
2022/03/28 12:16:45;;;;;;;;;;;20.80;62.30;;;;;;5106355;28;19986;-76
2022/03/28 12:19:19;;;;;;;;;;;20.80;61.10;;;;;;5107096;28;20162;-75
2022/03/28 12:21:47;;;;;;;;;;;20.90;61.80;;;;;;5104740;28;19978;-73
2022/03/28 12:24:14;;;;;;;;;;;21.00;61.30;;;;;;5107114;28;20261;-71
2022/03/28 12:26:48;;;;;;;;;;;21.00;59.10;;;;;;5105579;28;20226;-70
2022/03/28 12:29:15;;;;;;;;;;;21.00;59.80;;;;;;5107110;28;19920;-71
2022/03/28 12:31:44;;;;;;;;;;;20.90;59.90;;;;;;5107234;28;19920;-71
2022/03/28 12:34:14;;;;;;;;;;;20.90;60.00;;;;;;5107101;28;20111;-72
2022/03/28 12:36:42;;;;;;;;;;;21.10;60.00;;;;;;5103212;28;20130;-73
2022/03/28 12:39:10;;;;;;;;;;;21.30;60.40;;;;;;5106652;28;19991;-72
2022/03/28 12:41:40;;;;;;;;;;;21.50;58.20;;;;;;5101863;28;19955;-73
2022/03/28 12:44:12;;;;;;;;;;;21.40;59.30;;;;;;5103044;28;19920;-73
2022/03/28 12:46:39;;;;;;;;;;;21.40;60.20;;;;;;5104236;28;19986;-72
2022/03/28 12:49:08;;;;;;;;;;;21.50;59.30;;;;;;5088851;28;19920;-71
2022/03/28 12:51:35;;;;;;;;;;;21.30;58.50;;;;;;5086092;28;19921;-71
2022/03/28 12:54:02;;;;;;;;;;;21.10;58.20;;;;;;5085312;28;19927;-71
2022/03/28 12:56:31;;;;;;;;;;;21.30;59.00;;;;;;5085101;28;20220;-72
2022/03/28 12:58:59;;;;;;;;;;;21.50;59.50;;;;;;5085274;28;19921;-71
2022/03/28 13:01:28;;;;;;;;;;;21.70;58.00;;;;;;5098703;28;19977;-72
2022/03/28 13:04:07;;;;;;;;;;;21.60;57.00;;;;;;5105658;28;19992;-73
2022/03/28 13:06:34;;;;;;;;;;;21.60;58.10;;;;;;5104840;28;19927;-73
2022/03/28 13:09:03;;;;;;;;;;;21.50;58.00;;;;;;5105216;28;20211;-73
2022/03/28 13:11:32;;;;;;;;;;;21.70;58.80;;;;;;5103090;28;19920;-73
2022/03/28 13:14:00;;;;;;;;;;;21.80;56.70;;;;;;5105668;28;19920;-74
2022/03/28 13:16:28;;;;;;;;;;;21.90;58.10;;;;;;5104795;28;20112;-74
2022/03/28 13:18:56;;;;;;;;;;;22.20;57.60;;;;;;5104929;28;19923;-74
2022/03/28 13:21:22;;;;;;;;;;;22.20;57.90;;;;;;5102633;28;19921;-74
2022/03/28 13:24:00;;;;;;;;;;;22.40;57.00;;;;;;5103357;28;19920;-74
2022/03/28 13:26:36;;;;;;;;;;;22.50;56.20;;;;;;5103225;28;19927;-74
2022/03/28 13:29:14;;;;;;;;;;;22.70;55.50;;;;;;5105102;28;19920;-74
2022/03/28 13:31:42;;;;;;;;;;;22.90;54.50;;;;;;5105374;28;20219;-75
2022/03/28 13:34:09;;;;;;;;;;;23.10;56.70;;;;;;5105117;28;19986;-74
2022/03/28 13:36:36;;;;;;;;;;;23.20;54.50;;;;;;5104425;28;20242;-75
2022/03/28 13:39:02;;;;;;;;;;;23.20;54.20;;;;;;5105083;28;19926;-73
2022/03/28 13:41:29;;;;;;;;;;;23.00;54.80;;;;;;5101314;28;19920;-74
2022/03/28 13:43:56;;;;;;;;;;;23.10;55.20;;;;;;5089900;28;20091;-74
2022/03/28 13:46:23;;;;;;;;;;;23.20;54.50;;;;;;5084485;28;19920;-74
2022/03/28 13:48:52;;;;;;;;;;;23.20;55.50;;;;;;5094748;28;20257;-73
2022/03/28 13:51:19;;;;;;;;;;;23.40;54.90;;;;;;5105182;28;19924;-74
2022/03/28 13:53:45;;;;;;;;;;;23.10;54.50;;;;;;5104694;28;19927;-74
2022/03/28 13:56:12;;;;;;;;;;;23.10;54.10;;;;;;5104465;28;20110;-74
2022/03/28 13:58:40;;;;;;;;;;;23.20;53.60;;;;;;5104588;28;19920;-73
2022/03/28 14:01:07;;;;;;;;;;;23.10;53.40;;;;;;5104555;28;19995;-75
2022/03/28 14:03:34;;;;;;;;;;;23.00;54.40;;;;;;5108685;28;19920;-73
2022/03/28 14:06:02;;;;;;;;;;;23.10;54.10;;;;;;5107227;28;19927;-73
2022/03/28 14:08:33;;;;;;;;;;;23.10;54.50;;;;;;5120491;28;20118;-73
2022/03/28 14:10:59;;;;;;;;;;;23.20;54.50;;;;;;5123275;28;19992;-74
2022/03/28 14:13:27;;;;;;;;;;;23.40;54.60;;;;;;5102430;28;20111;-74
2022/03/28 14:15:53;;;;;;;;;;;23.80;54.60;;;;;;5103541;28;19921;-74
2022/03/28 14:18:22;;;;;;;;;;;23.50;50.90;;;;;;5104473;28;19920;-74
2022/03/28 14:20:49;;;;;;;;;;;23.20;51.50;;;;;;5103098;28;20211;-74
2022/03/28 14:23:16;;;;;;;;;;;23.10;52.20;;;;;;5104234;28;20208;-74
2022/03/28 14:25:43;;;;;;;;;;;23.00;53.30;;;;;;5103179;28;19926;-73
2022/03/28 14:28:10;;;;;;;;;;;22.90;52.60;;;;;;5103564;28;19920;-74
2022/03/28 14:30:37;;;;;;;;;;;22.70;53.00;;;;;;5083508;28;19924;-74